Time;durP1;ratioP1;P1;durP2;ratioP2;P2;SDS_P1;SDS_P2;PMS_P1;PMS_P2;Temp;Humidity;BMP_temperature;BMP_pressure;BME280_temperature;BME280_humidity;BME280_pressure;Samples;Min_cycle;Max_cycle;Signal;HPM_P1;HPM_P2
2023/09/06 00:01:06;;;;;;;14.18;4.00;;;37.20;53.30;;;;;;5014165;28;20509;-63
2023/09/06 00:03:32;;;;;;;11.52;3.38;;;37.20;53.70;;;;;;5021391;28;20056;-60
2023/09/06 00:05:59;;;;;;;14.65;6.13;;;37.10;53.20;;;;;;5019129;28;20561;-66
2023/09/06 00:08:27;;;;;;;19.60;5.55;;;37.00;53.40;;;;;;5019023;28;20029;-64
2023/09/06 00:10:53;;;;;;;9.40;2.80;;;37.00;54.10;;;;;;5018706;28;20022;-64
2023/09/06 00:13:21;;;;;;;21.70;3.00;;;37.00;54.90;;;;;;5019027;28;20496;-64
2023/09/06 00:15:48;;;;;;;7.88;2.33;;;37.00;55.40;;;;;;5029081;23;20108;-64
2023/09/06 00:18:14;;;;;;;8.75;2.47;;;36.90;56.10;;;;;;5015975;28;20113;-63
2023/09/06 00:20:41;;;;;;;46.30;5.57;;;36.80;56.80;;;;;;5016573;28;20025;-63
2023/09/06 00:23:09;;;;;;;69.32;6.75;;;36.80;56.60;;;;;;5017391;28;20039;-62
2023/09/06 00:25:36;;;;;;;36.97;4.28;;;36.70;57.10;;;;;;5016806;28;20376;-63
2023/09/06 00:28:04;;;;;;;13.68;2.88;;;36.50;57.20;;;;;;5017347;28;20415;-60
2023/09/06 00:30:31;;;;;;;31.70;2.72;;;36.50;57.50;;;;;;5018868;28;20021;-61
2023/09/06 00:32:59;;;;;;;12.90;2.42;;;36.40;56.80;;;;;;5021513;28;20018;-60
2023/09/06 00:35:26;;;;;;;12.82;2.40;;;36.40;57.20;;;;;;5015190;28;20014;-59
2023/09/06 00:37:54;;;;;;;9.00;1.80;;;36.30;57.00;;;;;;5015565;28;20031;-62
2023/09/06 00:40:22;;;;;;;10.82;2.03;;;36.20;56.70;;;;;;5014125;28;20018;-63
2023/09/06 00:42:53;;;;;;;24.33;2.55;;;36.10;56.80;;;;;;5017327;28;20555;-60
2023/09/06 00:45:26;;;;;;;14.35;2.53;;;36.00;56.70;;;;;;5007336;28;20032;-60
2023/09/06 00:47:55;;;;;;;16.35;2.47;;;35.90;56.70;;;;;;4998429;28;20198;-63
2023/09/06 00:50:22;;;;;;;17.55;2.85;;;35.90;56.90;;;;;;4999865;28;20493;-61
2023/09/06 00:52:51;;;;;;;12.13;2.33;;;35.90;56.30;;;;;;4993429;28;21250;-65
2023/09/06 00:55:19;;;;;;;18.08;2.20;;;35.80;55.90;;;;;;4998736;28;20367;-62
2023/09/06 00:57:47;;;;;;;16.48;2.72;;;35.80;55.50;;;;;;4995972;28;20386;-62
2023/09/06 01:00:23;;;;;;;14.27;2.53;;;35.70;55.10;;;;;;4999271;28;20025;-62
2023/09/06 01:02:50;;;;;;;16.77;2.67;;;35.60;54.50;;;;;;4997244;28;20438;-62
2023/09/06 01:05:19;;;;;;;7.65;2.33;;;35.60;54.70;;;;;;4997331;28;20073;-64
2023/09/06 01:07:55;;;;;;;15.20;2.63;;;35.60;54.60;;;;;;4997959;28;20030;-63
2023/09/06 01:10:23;;;;;;;8.63;1.92;;;35.60;54.20;;;;;;4995341;28;20082;-65
2023/09/06 01:12:49;;;;;;;7.63;1.90;;;35.50;53.90;;;;;;5000719;28;20018;-60
2023/09/06 01:15:16;;;;;;;15.32;2.40;;;35.40;53.90;;;;;;4997107;28;20023;-62
2023/09/06 01:17:43;;;;;;;10.32;2.38;;;35.40;54.00;;;;;;4998460;28;20117;-63
2023/09/06 01:20:29;;;;;;;13.55;2.20;;;35.30;54.10;;;;;;4997421;28;20018;-62
2023/09/06 01:23:09;;;;;;;13.57;3.08;;;35.20;53.30;;;;;;4997585;28;20101;-63
2023/09/06 01:25:36;;;;;;;12.93;2.65;;;35.20;53.00;;;;;;4993726;28;20020;-63
2023/09/06 01:28:02;;;;;;;10.40;2.47;;;35.10;53.00;;;;;;4995958;28;20081;-63
2023/09/06 01:30:29;;;;;;;5.95;2.05;;;35.10;53.00;;;;;;4999468;28;20018;-63
2023/09/06 01:32:56;;;;;;;11.20;2.55;;;35.00;52.40;;;;;;4991535;28;20011;-64
2023/09/06 01:35:23;;;;;;;16.83;2.90;;;35.00;52.60;;;;;;4993352;28;20022;-64
2023/09/06 01:37:50;;;;;;;16.63;3.25;;;35.00;52.80;;;;;;4994074;28;20022;-64
2023/09/06 01:40:19;;;;;;;15.90;3.15;;;34.90;52.80;;;;;;4995035;28;20050;-62
2023/09/06 01:42:46;;;;;;;18.08;3.30;;;34.80;52.90;;;;;;4991132;28;20463;-61
2023/09/06 01:45:17;;;;;;;14.55;2.45;;;34.70;52.90;;;;;;4996802;28;20483;-62
2023/09/06 01:47:46;;;;;;;10.98;2.40;;;34.60;52.80;;;;;;4999907;28;20089;-62
2023/09/06 01:50:14;;;;;;;11.60;3.08;;;34.50;52.70;;;;;;5001678;28;21282;-63
2023/09/06 01:52:40;;;;;;;10.60;2.50;;;34.40;52.70;;;;;;4999245;28;20474;-64
2023/09/06 01:55:09;;;;;;;9.77;2.38;;;34.40;52.70;;;;;;5000680;28;20049;-62
2023/09/06 01:57:35;;;;;;;12.52;2.63;;;34.30;52.90;;;;;;4999219;28;20080;-63
2023/09/06 02:00:18;;;;;;;8.93;1.88;;;34.20;52.80;;;;;;5015312;28;20032;-62
2023/09/06 02:02:46;;;;;;;13.18;2.22;;;34.10;52.70;;;;;;4997950;28;20026;-61
2023/09/06 02:05:12;;;;;;;8.90;2.67;;;34.10;52.80;;;;;;4998749;28;20018;-64
2023/09/06 02:07:39;;;;;;;8.57;2.60;;;34.00;52.60;;;;;;4999167;28;20482;-62
2023/09/06 02:10:07;;;;;;;18.85;3.55;;;33.90;52.80;;;;;;4996511;28;20022;-62
2023/09/06 02:12:34;;;;;;;20.67;3.38;;;33.90;52.50;;;;;;4999359;28;20010;-61
2023/09/06 02:15:00;;;;;;;17.23;3.20;;;33.80;52.60;;;;;;5002023;28;20026;-61
2023/09/06 02:17:29;;;;;;;26.20;3.38;;;33.80;52.50;;;;;;4998540;28;20492;-61
2023/09/06 02:19:56;;;;;;;24.50;3.40;;;33.70;52.70;;;;;;4992208;28;20349;-61
2023/09/06 02:22:22;;;;;;;15.88;3.17;;;33.70;52.90;;;;;;4997253;28;20022;-60
2023/09/06 02:24:49;;;;;;;18.38;3.25;;;33.70;53.10;;;;;;5003047;28;20080;-60
2023/09/06 02:27:15;;;;;;;33.20;4.03;;;33.60;53.40;;;;;;5000884;28;20032;-60
2023/09/06 02:29:42;;;;;;;20.23;4.57;;;33.50;53.60;;;;;;5005110;28;20101;-60
2023/09/06 02:32:09;;;;;;;14.90;3.30;;;33.50;54.00;;;;;;5002904;28;20084;-64
2023/09/06 02:34:35;;;;;;;16.17;3.40;;;33.40;54.30;;;;;;5003724;28;20018;-61
2023/09/06 02:37:02;;;;;;;22.35;3.33;;;33.40;54.80;;;;;;5003971;28;20067;-60
2023/09/06 02:39:28;;;;;;;24.23;3.10;;;33.30;55.40;;;;;;4997915;28;20352;-60
2023/09/06 02:41:55;;;;;;;26.63;4.15;;;33.20;56.60;;;;;;4997301;28;20467;-62
2023/09/06 02:44:21;;;;;;;24.50;4.13;;;33.10;57.70;;;;;;4995551;28;20030;-61
2023/09/06 02:46:52;;;;;;;29.38;4.10;;;33.10;58.60;;;;;;5002662;28;20026;-61
2023/09/06 02:49:19;;;;;;;17.80;4.07;;;33.00;59.30;;;;;;4995021;28;20689;-62
2023/09/06 02:51:47;;;;;;;25.42;4.43;;;32.90;60.10;;;;;;4996254;28;20026;-61
2023/09/06 02:54:17;;;;;;;28.90;5.22;;;32.80;61.20;;;;;;4999773;28;20018;-62
2023/09/06 02:56:45;;;;;;;35.45;4.78;;;32.70;61.70;;;;;;5004368;28;20096;-61
2023/09/06 02:59:15;;;;;;;34.13;4.70;;;32.70;62.20;;;;;;4998323;28;20014;-61
2023/09/06 03:01:44;;;;;;;26.48;4.88;;;32.60;63.30;;;;;;4994611;28;20010;-59
2023/09/06 03:04:14;;;;;;;19.42;4.15;;;32.60;63.10;;;;;;5001927;28;20052;-61
2023/09/06 03:06:43;;;;;;;28.38;4.45;;;32.50;63.30;;;;;;4994869;28;20025;-62
2023/09/06 03:09:12;;;;;;;21.77;4.20;;;32.50;63.50;;;;;;4995885;28;20105;-62
2023/09/06 03:11:39;;;;;;;31.42;4.78;;;32.40;63.60;;;;;;4996909;28;20048;-60
2023/09/06 03:14:05;;;;;;;25.60;4.72;;;32.30;63.70;;;;;;5007720;28;20034;-61
2023/09/06 03:16:38;;;;;;;55.50;6.85;;;32.20;63.80;;;;;;4993470;28;20030;-64
2023/09/06 03:19:10;;;;;;;25.77;4.53;;;32.30;64.40;;;;;;5003554;28;20029;-64
2023/09/06 03:21:37;;;;;;;19.40;4.28;;;32.40;63.60;;;;;;5002291;28;20022;-62
2023/09/06 03:24:12;;;;;;;32.20;4.38;;;32.50;63.10;;;;;;5004306;28;20109;-62
2023/09/06 03:26:44;;;;;;;13.65;4.20;;;32.60;62.50;;;;;;4995401;28;20030;-61
2023/09/06 03:29:11;;;;;;;13.70;4.30;;;32.70;61.70;;;;;;4996299;28;20390;-63
2023/09/06 03:31:42;;;;;;;18.05;4.45;;;32.70;61.20;;;;;;4998900;28;20019;-61
2023/09/06 03:34:13;;;;;;;21.50;4.72;;;32.70;61.20;;;;;;4995050;28;20010;-63
2023/09/06 03:36:46;;;;;;;14.43;3.83;;;32.80;60.90;;;;;;4996752;28;20018;-63
2023/09/06 03:39:14;;;;;;;21.52;3.83;;;32.80;60.60;;;;;;5000630;28;20478;-62
2023/09/06 03:41:42;;;;;;;12.98;3.55;;;32.80;60.70;;;;;;4995400;28;20478;-63
2023/09/06 03:44:08;;;;;;;13.40;3.05;;;32.80;60.80;;;;;;4996725;28;20025;-61
2023/09/06 03:46:34;;;;;;;24.48;3.47;;;32.80;61.10;;;;;;5001829;28;20022;-62
2023/09/06 03:49:10;;;;;;;10.07;2.80;;;32.70;61.40;;;;;;4996327;28;20038;-64
2023/09/06 03:51:37;;;;;;;16.38;3.30;;;32.70;61.80;;;;;;4994467;28;20014;-63
2023/09/06 03:54:06;;;;;;;17.70;2.80;;;32.60;62.20;;;;;;4995839;28;20115;-65
2023/09/06 03:56:34;;;;;;;14.50;3.05;;;32.60;62.50;;;;;;5003144;28;20121;-64
2023/09/06 03:59:01;;;;;;;14.88;3.20;;;32.50;62.90;;;;;;4998685;28;20506;-64
2023/09/06 04:01:27;;;;;;;15.70;3.47;;;32.50;63.10;;;;;;5003579;28;20057;-64
2023/09/06 04:03:54;;;;;;;16.17;3.17;;;32.60;63.30;;;;;;4994027;28;20069;-63
2023/09/06 04:06:20;;;;;;;18.30;2.83;;;32.60;63.80;;;;;;5001243;28;20042;-66
2023/09/06 04:08:48;;;;;;;14.52;3.65;;;32.40;65.10;;;;;;4998251;28;21269;-63
2023/09/06 04:11:14;;;;;;;16.67;3.15;;;32.30;66.00;;;;;;4994501;28;20009;-64
2023/09/06 04:13:42;;;;;;;17.20;4.28;;;32.30;66.80;;;;;;4999807;28;20018;-63
2023/09/06 04:16:09;;;;;;;18.90;3.20;;;32.10;67.80;;;;;;4993955;28;20463;-65
2023/09/06 04:18:35;;;;;;;17.38;3.10;;;32.10;68.60;;;;;;4993143;28;20045;-65
2023/09/06 04:21:07;;;;;;;18.67;2.80;;;32.00;69.40;;;;;;5002276;28;20025;-63
2023/09/06 04:23:36;;;;;;;12.50;3.22;;;31.90;69.90;;;;;;4994446;28;20034;-64
2023/09/06 04:26:07;;;;;;;12.35;3.40;;;31.90;70.00;;;;;;4993968;28;20046;-64
2023/09/06 04:28:34;;;;;;;15.20;3.10;;;31.80;70.30;;;;;;4995271;28;20088;-64
2023/09/06 04:31:03;;;;;;;11.60;2.95;;;31.70;70.50;;;;;;4993284;28;20019;-66
2023/09/06 04:33:29;;;;;;;15.15;3.28;;;31.70;71.10;;;;;;4992876;28;20033;-65
2023/09/06 04:35:57;;;;;;;19.02;3.58;;;31.70;71.30;;;;;;4995526;28;20455;-65
2023/09/06 04:38:24;;;;;;;11.95;2.88;;;31.60;72.10;;;;;;4999767;28;20496;-63
2023/09/06 04:40:51;;;;;;;13.02;2.97;;;31.60;72.50;;;;;;4993672;28;20022;-67
2023/09/06 04:43:19;;;;;;;10.98;2.60;;;31.50;73.10;;;;;;4996960;28;20582;-62
2023/09/06 04:45:49;;;;;;;18.08;4.68;;;31.50;73.40;;;;;;4995742;28;20105;-65
2023/09/06 04:48:19;;;;;;;11.55;3.10;;;31.30;73.50;;;;;;5002656;28;20048;-65
2023/09/06 04:50:46;;;;;;;14.18;3.00;;;31.30;73.70;;;;;;4996646;28;20010;-65
2023/09/06 04:53:17;;;;;;;17.33;3.08;;;31.30;73.80;;;;;;4997253;28;20106;-65
2023/09/06 04:55:44;;;;;;;19.92;3.40;;;31.40;73.90;;;;;;4997113;28;20014;-62
2023/09/06 04:58:11;;;;;;;15.13;4.68;;;31.40;74.60;;;;;;4996248;28;20028;-65
2023/09/06 05:00:43;;;;;;;16.58;3.80;;;31.30;75.30;;;;;;5003588;28;20088;-60
2023/09/06 05:03:12;;;;;;;24.55;3.78;;;31.20;76.10;;;;;;4999441;28;20097;-64
2023/09/06 05:05:40;;;;;;;14.00;3.30;;;31.10;77.50;;;;;;5003970;28;20034;-64
2023/09/06 05:08:08;;;;;;;14.57;3.25;;;30.90;78.60;;;;;;5003245;28;20021;-65
2023/09/06 05:10:35;;;;;;;16.67;2.55;;;30.90;79.60;;;;;;5001386;28;20041;-67
2023/09/06 05:13:02;;;;;;;8.73;2.40;;;30.90;80.30;;;;;;5002614;28;20017;-65
2023/09/06 05:15:28;;;;;;;14.85;2.67;;;30.90;81.50;;;;;;5001431;28;20019;-66
2023/09/06 05:17:55;;;;;;;13.65;2.67;;;30.80;82.30;;;;;;4998199;28;20070;-64
2023/09/06 05:20:37;;;;;;;9.73;2.60;;;30.80;83.10;;;;;;4999368;28;20050;-64
2023/09/06 05:23:11;;;;;;;12.85;2.35;;;30.60;84.30;;;;;;5005452;28;20038;-63
2023/09/06 05:25:39;;;;;;;14.45;2.92;;;30.70;85.00;;;;;;4998436;28;20025;-64
2023/09/06 05:28:10;;;;;;;16.42;2.53;;;30.70;85.70;;;;;;4998487;28;20021;-66
2023/09/06 05:30:41;;;;;;;15.18;2.78;;;30.70;85.70;;;;;;5013065;28;20534;-65
2023/09/06 05:33:07;;;;;;;18.17;3.17;;;30.60;86.70;;;;;;4997592;28;20026;-63
2023/09/06 05:35:34;;;;;;;15.18;2.95;;;30.40;87.60;;;;;;5001260;28;20017;-62
2023/09/06 05:38:03;;;;;;;14.07;2.53;;;30.50;87.80;;;;;;5003663;28;20030;-65
2023/09/06 05:40:30;;;;;;;10.88;2.67;;;30.50;88.30;;;;;;5001079;28;20060;-63
2023/09/06 05:42:57;;;;;;;16.50;2.88;;;30.40;89.20;;;;;;5001318;28;20746;-66
2023/09/06 05:45:23;;;;;;;17.30;3.10;;;30.40;89.50;;;;;;4997586;28;20029;-66
2023/09/06 05:47:50;;;;;;;11.45;3.20;;;30.30;90.10;;;;;;4997545;28;20498;-63
2023/09/06 05:50:17;;;;;;;15.35;3.10;;;30.30;90.30;;;;;;4998169;28;20019;-65
2023/09/06 05:52:44;;;;;;;13.73;3.10;;;30.30;90.50;;;;;;4995457;28;20380;-63
2023/09/06 05:55:10;;;;;;;12.38;3.20;;;30.20;90.70;;;;;;4999753;28;20009;-64
2023/09/06 05:57:37;;;;;;;13.23;3.00;;;30.10;91.10;;;;;;4998845;28;20451;-65
2023/09/06 06:00:12;;;;;;;9.80;2.80;;;30.00;91.60;;;;;;4991844;28;20495;-64
2023/09/06 06:02:39;;;;;;;9.52;2.50;;;29.90;92.10;;;;;;4998014;28;20045;-64
2023/09/06 06:05:06;;;;;;;12.10;3.28;;;29.90;92.20;;;;;;4994793;28;20023;-65
2023/09/06 06:07:33;;;;;;;14.73;2.60;;;29.90;92.60;;;;;;4998480;28;20137;-64
2023/09/06 06:09:59;;;;;;;14.38;2.55;;;29.90;92.90;;;;;;4996599;28;20101;-66
2023/09/06 06:12:25;;;;;;;16.63;2.80;;;29.80;93.20;;;;;;4998547;28;20026;-65
2023/09/06 06:14:52;;;;;;;11.23;2.88;;;29.80;93.60;;;;;;5000150;28;20628;-65
2023/09/06 06:17:19;;;;;;;20.88;2.72;;;29.70;94.10;;;;;;4993060;28;20105;-66
2023/09/06 06:19:47;;;;;;;13.25;3.08;;;29.60;94.60;;;;;;5000657;28;20045;-66
2023/09/06 06:22:14;;;;;;;12.27;2.55;;;29.60;94.70;;;;;;5000494;28;20026;-63
2023/09/06 06:24:45;;;;;;;11.32;3.00;;;29.60;95.10;;;;;;4999778;28;21535;-66
2023/09/06 06:27:12;;;;;;;16.30;3.17;;;29.60;95.20;;;;;;4996212;28;20161;-64
2023/09/06 06:29:39;;;;;;;13.27;3.08;;;29.60;95.80;;;;;;5000814;28;20014;-64
2023/09/06 06:32:06;;;;;;;14.95;2.35;;;29.50;95.80;;;;;;4998547;28;20064;-62
2023/09/06 06:34:33;;;;;;;16.48;2.80;;;29.50;96.10;;;;;;5001400;28;20048;-64
2023/09/06 06:36:59;;;;;;;17.42;2.65;;;29.40;96.30;;;;;;5000657;28;20524;-63
2023/09/06 06:39:26;;;;;;;12.63;2.88;;;29.40;96.50;;;;;;5001726;28;20358;-62
2023/09/06 06:41:52;;;;;;;14.00;2.85;;;29.40;97.00;;;;;;4999328;28;20014;-64
2023/09/06 06:44:18;;;;;;;12.85;3.03;;;29.40;97.00;;;;;;4999774;28;20022;-63
2023/09/06 06:46:45;;;;;;;10.80;2.83;;;29.40;97.20;;;;;;5002288;28;20017;-62
2023/09/06 06:49:12;;;;;;;19.23;3.30;;;29.40;97.40;;;;;;5003542;28;20099;-63
2023/09/06 06:51:40;;;;;;;13.90;2.80;;;29.30;97.60;;;;;;4996864;28;20017;-63
2023/09/06 06:54:10;;;;;;;11.95;3.17;;;29.30;98.00;;;;;;4997891;28;20378;-63
2023/09/06 06:56:37;;;;;;;11.80;2.72;;;29.20;98.30;;;;;;5001105;28;20062;-60
2023/09/06 06:59:04;;;;;;;12.52;2.40;;;29.20;98.60;;;;;;5003413;28;20026;-63
2023/09/06 07:01:31;;;;;;;12.68;2.47;;;29.30;98.90;;;;;;5000763;28;20022;-63
2023/09/06 07:03:58;;;;;;;13.35;3.05;;;29.30;99.10;;;;;;4994789;28;20476;-64
2023/09/06 07:06:26;;;;;;;12.98;2.95;;;29.30;99.10;;;;;;4992305;28;20136;-63
2023/09/06 07:08:53;;;;;;;19.02;3.20;;;29.20;99.40;;;;;;4997928;28;20034;-61
2023/09/06 07:11:20;;;;;;;9.20;3.15;;;29.20;99.80;;;;;;4997441;28;20426;-61
2023/09/06 07:13:48;;;;;;;14.98;3.17;;;29.00;99.90;;;;;;4998228;28;20014;-61
2023/09/06 07:16:20;;;;;;;11.15;3.00;;;29.10;99.90;;;;;;5003846;28;20045;-61
2023/09/06 07:18:47;;;;;;;11.55;3.33;;;29.10;99.90;;;;;;4999395;28;20034;-62
2023/09/06 07:21:15;;;;;;;12.55;3.60;;;29.10;99.90;;;;;;4994753;28;20019;-62
2023/09/06 07:23:41;;;;;;;13.68;3.45;;;29.10;99.90;;;;;;5005326;28;20415;-62
2023/09/06 07:26:08;;;;;;;13.88;3.28;;;29.10;99.90;;;;;;4999908;28;20022;-62
2023/09/06 07:28:42;;;;;;;14.77;3.95;;;29.10;99.90;;;;;;5000805;28;20464;-62
2023/09/06 07:31:09;;;;;;;13.48;3.72;;;29.10;99.90;;;;;;5003254;28;21620;-63
2023/09/06 07:33:36;;;;;;;14.30;4.00;;;29.20;99.90;;;;;;4999407;28;20057;-64
2023/09/06 07:36:04;;;;;;;14.10;3.65;;;29.00;99.90;;;;;;5001228;28;20050;-62
2023/09/06 07:38:31;;;;;;;14.73;3.80;;;28.90;99.90;;;;;;5000925;28;20053;-63
2023/09/06 07:41:01;;;;;;;14.38;3.65;;;28.90;99.90;;;;;;5002718;28;20041;-62
2023/09/06 07:43:29;;;;;;;18.08;3.75;;;28.90;99.90;;;;;;5001745;28;20499;-63
2023/09/06 07:45:57;;;;;;;19.45;4.07;;;29.00;99.90;;;;;;5000173;28;20386;-62
2023/09/06 07:48:28;;;;;;;18.02;4.15;;;29.00;99.90;;;;;;5001053;28;20030;-62
2023/09/06 07:50:56;;;;;;;15.48;3.95;;;29.00;99.90;;;;;;5001996;28;20017;-63
2023/09/06 07:53:24;;;;;;;12.05;3.30;;;29.00;99.90;;;;;;5001011;28;20021;-61
2023/09/06 07:55:50;;;;;;;12.02;3.72;;;28.90;99.90;;;;;;5000627;28;20030;-62
2023/09/06 07:58:17;;;;;;;23.77;4.07;;;28.90;99.90;;;;;;5001673;28;20026;-61
2023/09/06 08:00:43;;;;;;;15.45;3.30;;;28.90;99.90;;;;;;5014050;28;20445;-62
2023/09/06 08:03:11;;;;;;;15.32;4.00;;;28.80;99.90;;;;;;4998409;28;20067;-63
2023/09/06 08:05:38;;;;;;;21.73;4.70;;;28.90;99.90;;;;;;4993650;28;20022;-62
2023/09/06 08:08:09;;;;;;;12.10;4.10;;;28.80;99.90;;;;;;5001544;28;20038;-62
2023/09/06 08:10:36;;;;;;;17.77;4.63;;;28.90;99.90;;;;;;5000390;28;20042;-61
2023/09/06 08:13:03;;;;;;;14.57;4.28;;;28.80;99.90;;;;;;4998108;28;20017;-62
2023/09/06 08:15:33;;;;;;;13.48;3.67;;;28.70;99.90;;;;;;5000162;28;20010;-61
2023/09/06 08:18:00;;;;;;;21.05;4.47;;;28.70;99.90;;;;;;5001944;28;20613;-63
2023/09/06 08:20:26;;;;;;;15.15;4.82;;;28.70;99.90;;;;;;4999594;28;20022;-63
2023/09/06 08:22:53;;;;;;;12.00;5.00;;;28.60;99.90;;;;;;5001285;28;20105;-62
2023/09/06 08:25:19;;;;;;;16.27;4.00;;;28.60;99.90;;;;;;5001480;28;20507;-61
2023/09/06 08:27:46;;;;;;;13.23;4.35;;;28.60;99.90;;;;;;4994475;28;20467;-62
2023/09/06 08:30:15;;;;;;;17.60;5.07;;;28.50;99.90;;;;;;4994224;28;21628;-61
2023/09/06 08:32:42;;;;;;;12.88;4.32;;;28.60;99.90;;;;;;4996583;28;20659;-61
2023/09/06 08:35:11;;;;;;;13.48;4.20;;;28.50;99.90;;;;;;4996463;28;20026;-63
2023/09/06 08:37:39;;;;;;;15.85;3.78;;;28.60;99.90;;;;;;5005943;28;20022;-62
2023/09/06 08:40:06;;;;;;;13.43;3.92;;;28.50;99.90;;;;;;4999177;28;20092;-62
2023/09/06 08:42:34;;;;;;;13.02;4.20;;;28.50;99.90;;;;;;4990630;28;20026;-61
2023/09/06 08:45:03;;;;;;;17.05;3.92;;;28.50;99.90;;;;;;5001791;28;20057;-62
2023/09/06 08:47:29;;;;;;;15.35;3.88;;;28.50;99.90;;;;;;5001324;28;20026;-63
2023/09/06 08:49:58;;;;;;;14.43;3.90;;;28.40;99.90;;;;;;4999897;28;20021;-63
2023/09/06 08:52:24;;;;;;;18.58;3.90;;;28.40;99.90;;;;;;5001614;28;20024;-64
2023/09/06 08:54:51;;;;;;;12.88;3.38;;;28.40;99.90;;;;;;5003254;28;20045;-63
2023/09/06 08:57:21;;;;;;;16.33;3.88;;;28.30;99.90;;;;;;5000998;28;20092;-62
2023/09/06 08:59:49;;;;;;;17.00;4.15;;;28.30;99.90;;;;;;4994363;28;20034;-63
2023/09/06 09:02:16;;;;;;;18.60;3.92;;;28.30;99.90;;;;;;4994042;28;20018;-61
2023/09/06 09:04:43;;;;;;;15.55;4.20;;;28.30;99.90;;;;;;4993131;28;20041;-62
2023/09/06 09:07:14;;;;;;;16.13;4.20;;;28.30;99.90;;;;;;4992783;28;20021;-61
2023/09/06 09:10:04;;;;;;;13.70;4.35;;;28.30;99.90;;;;;;4997087;28;20014;-61
2023/09/06 09:12:31;;;;;;;11.82;3.97;;;28.30;99.90;;;;;;4996930;28;20022;-62
2023/09/06 09:14:59;;;;;;;14.15;5.13;;;28.10;99.90;;;;;;4994599;28;20023;-60
2023/09/06 09:17:27;;;;;;;14.70;5.47;;;28.10;99.90;;;;;;4994854;28;20030;-63
2023/09/06 09:19:56;;;;;;;14.52;4.75;;;28.10;99.90;;;;;;5002386;28;20033;-62
2023/09/06 09:22:26;;;;;;;12.40;4.53;;;28.10;99.90;;;;;;5006902;28;20382;-63
2023/09/06 09:25:00;;;;;;;13.70;4.28;;;27.90;99.90;;;;;;4993559;28;20356;-63
2023/09/06 09:27:29;;;;;;;17.03;4.30;;;27.90;99.90;;;;;;4999394;28;20423;-64
2023/09/06 09:29:56;;;;;;;436.25;24.00;;;27.80;99.90;;;;;;4992940;28;20414;-62
2023/09/06 09:32:23;;;;;;;18.55;4.05;;;27.80;99.90;;;;;;5000065;28;20049;-62
2023/09/06 09:34:52;;;;;;;17.77;3.85;;;27.80;99.90;;;;;;4993480;28;20041;-62
2023/09/06 09:37:19;;;;;;;12.77;3.72;;;27.80;99.90;;;;;;4998335;28;20026;-62
2023/09/06 09:39:47;;;;;;;17.13;3.67;;;27.80;99.90;;;;;;4994204;28;20018;-61
2023/09/06 09:42:14;;;;;;;16.17;3.70;;;27.80;99.90;;;;;;4997031;28;20095;-61
2023/09/06 09:44:41;;;;;;;11.20;4.00;;;27.80;99.90;;;;;;4991767;28;20018;-63
2023/09/06 09:47:15;;;;;;;12.23;3.72;;;27.60;99.90;;;;;;4998620;28;20397;-63
2023/09/06 09:49:43;;;;;;;15.82;4.35;;;27.70;99.90;;;;;;4998787;28;20060;-63
2023/09/06 09:52:14;;;;;;;10.88;3.72;;;27.60;99.90;;;;;;5003611;28;20057;-63
2023/09/06 09:54:43;;;;;;;16.30;4.60;;;27.70;99.90;;;;;;4992990;28;20019;-64
2023/09/06 09:57:11;;;;;;;12.60;3.55;;;27.70;99.90;;;;;;4996864;28;20080;-63
2023/09/06 09:59:39;;;;;;;11.18;2.90;;;27.60;99.90;;;;;;4999355;28;20036;-64
2023/09/06 10:02:07;;;;;;;12.48;3.70;;;27.60;99.90;;;;;;4993802;28;20042;-63
2023/09/06 10:04:38;;;;;;;13.18;3.95;;;27.60;99.90;;;;;;4995335;28;20047;-63
2023/09/06 10:07:08;;;;;;;9.65;3.80;;;27.50;99.90;;;;;;4997486;28;20585;-63
2023/09/06 10:09:38;;;;;;;8.27;3.08;;;27.50;99.90;;;;;;4995814;28;20056;-63
2023/09/06 10:12:07;;;;;;;9.10;3.00;;;27.40;99.90;;;;;;4994791;28;20050;-62
2023/09/06 10:14:35;;;;;;;16.02;3.92;;;27.40;99.90;;;;;;4996499;28;20433;-63
2023/09/06 10:17:03;;;;;;;13.20;3.83;;;27.40;99.90;;;;;;4992235;28;20479;-62
2023/09/06 10:19:29;;;;;;;10.50;4.18;;;27.40;99.90;;;;;;4996474;28;20058;-63
2023/09/06 10:21:56;;;;;;;13.77;3.47;;;27.40;99.90;;;;;;4992455;28;20408;-64
2023/09/06 10:24:23;;;;;;;14.05;3.80;;;27.40;99.90;;;;;;4994578;28;20041;-62
2023/09/06 10:26:54;;;;;;;14.90;4.03;;;27.40;99.90;;;;;;4998665;28;20064;-63
2023/09/06 10:29:24;;;;;;;14.40;3.90;;;27.30;99.90;;;;;;4997449;28;20071;-63
2023/09/06 10:31:52;;;;;;;10.65;4.18;;;27.30;99.90;;;;;;4998780;28;20010;-62
2023/09/06 10:34:20;;;;;;;18.35;5.10;;;27.30;99.90;;;;;;4993399;28;20091;-63
2023/09/06 10:36:56;;;;;;;15.30;4.72;;;27.40;99.90;;;;;;4999257;28;20133;-64
2023/09/06 10:39:26;;;;;;;12.45;5.13;;;27.40;99.90;;;;;;4994453;28;20139;-64
2023/09/06 10:42:13;;;;;;;20.02;6.28;;;27.40;99.90;;;;;;4992954;28;20517;-63
2023/09/06 10:45:00;;;;;;;18.88;5.80;;;27.30;99.90;;;;;;5001212;28;20043;-63
2023/09/06 10:47:31;;;;;;;14.02;5.63;;;27.30;99.90;;;;;;4999352;28;20072;-64
2023/09/06 10:50:20;;;;;;;14.25;5.88;;;27.10;99.90;;;;;;4999490;28;20394;-63
2023/09/06 10:52:58;;;;;;;14.43;5.80;;;27.20;99.90;;;;;;4996837;28;20037;-64
2023/09/06 10:55:30;;;;;;;15.32;6.55;;;27.20;99.90;;;;;;4996361;28;20044;-63
2023/09/06 10:57:59;;;;;;;19.90;6.10;;;27.20;99.90;;;;;;4997922;28;20535;-64
2023/09/06 11:00:30;;;;;;;10.55;4.47;;;27.20;99.90;;;;;;4998438;28;20059;-62
2023/09/06 11:03:10;;;;;;;14.27;5.32;;;27.10;99.90;;;;;;4995806;28;20062;-63
2023/09/06 11:05:38;;;;;;;15.90;5.70;;;27.00;99.90;;;;;;4997898;28;20513;-64
2023/09/06 11:08:08;;;;;;;18.48;6.32;;;26.90;99.90;;;;;;4996073;28;20571;-64
2023/09/06 11:10:37;;;;;;;15.70;5.30;;;26.90;99.90;;;;;;5002773;28;20044;-63
2023/09/06 11:13:12;;;;;;;17.30;5.05;;;27.00;99.90;;;;;;4999143;28;20018;-63
2023/09/06 11:15:42;;;;;;;12.32;5.45;;;27.00;99.90;;;;;;4999064;28;20412;-62
2023/09/06 11:18:09;;;;;;;15.18;5.45;;;27.00;99.90;;;;;;4997894;28;20107;-64
2023/09/06 11:20:36;;;;;;;21.63;4.80;;;27.00;99.90;;;;;;5004440;28;20040;-62
2023/09/06 11:23:04;;;;;;;16.33;6.13;;;27.00;99.90;;;;;;4998172;28;20053;-61
2023/09/06 11:25:34;;;;;;;14.13;4.88;;;26.90;99.90;;;;;;4997668;28;20048;-62
2023/09/06 11:28:14;;;;;;;12.80;5.15;;;26.90;99.90;;;;;;5000154;28;20165;-63
2023/09/06 11:30:41;;;;;;;14.32;3.92;;;26.90;99.90;;;;;;4995387;28;20123;-62
2023/09/06 11:33:10;;;;;;;11.93;4.22;;;26.80;99.90;;;;;;5000993;28;20721;-62
2023/09/06 11:35:40;;;;;;;20.55;4.80;;;26.80;99.90;;;;;;5000034;28;20567;-62
2023/09/06 11:38:14;;;;;;;16.42;4.68;;;26.90;99.90;;;;;;5008648;28;20112;-63
2023/09/06 11:40:42;;;;;;;16.17;4.85;;;26.80;99.90;;;;;;4996639;28;20202;-63
2023/09/06 11:43:11;;;;;;;14.45;4.28;;;26.90;99.90;;;;;;4996281;28;20053;-63
2023/09/06 11:45:43;;;;;;;12.20;4.25;;;26.80;99.90;;;;;;5001332;28;20055;-63
2023/09/06 11:48:10;;;;;;;16.45;4.78;;;26.70;99.90;;;;;;5001999;28;20579;-63
2023/09/06 11:50:42;;;;;;;19.67;4.93;;;26.80;99.90;;;;;;4996717;28;20041;-61
2023/09/06 11:53:10;;;;;;;20.20;5.75;;;26.80;99.90;;;;;;4998683;28;20040;-64
2023/09/06 11:55:43;;;;;;;15.18;5.03;;;26.70;99.90;;;;;;5002613;28;20499;-63
2023/09/06 11:58:20;;;;;;;17.00;4.38;;;26.70;99.90;;;;;;5006583;28;20416;-63
2023/09/06 12:00:50;;;;;;;12.18;3.97;;;26.70;99.90;;;;;;4997024;28;20044;-65
2023/09/06 12:03:19;;;;;;;14.25;4.18;;;26.80;99.90;;;;;;4996549;28;20075;-64
2023/09/06 12:05:50;;;;;;;14.88;3.97;;;26.80;99.90;;;;;;4999009;28;20052;-65
2023/09/06 12:08:22;;;;;;;14.50;4.20;;;26.70;99.90;;;;;;4995658;28;20112;-65
2023/09/06 12:10:54;;;;;;;14.13;3.80;;;26.70;99.90;;;;;;5002797;28;20128;-63
2023/09/06 12:13:31;;;;;;;12.65;4.82;;;26.70;99.90;;;;;;5001450;28;20394;-63
2023/09/06 12:15:58;;;;;;;12.10;4.75;;;26.70;99.90;;;;;;5000498;28;20480;-63
2023/09/06 12:18:28;;;;;;;17.60;5.13;;;26.70;99.90;;;;;;4993965;28;20078;-63
2023/09/06 12:20:58;;;;;;;16.60;4.38;;;26.70;99.90;;;;;;4992682;28;20405;-63
2023/09/06 12:23:29;;;;;;;18.98;4.88;;;26.70;99.90;;;;;;5003111;28;20048;-62
2023/09/06 12:25:59;;;;;;;13.45;4.60;;;26.70;99.90;;;;;;4996766;28;20053;-63
2023/09/06 12:28:28;;;;;;;19.95;4.45;;;26.70;99.90;;;;;;5000084;28;20056;-63
2023/09/06 12:30:58;;;;;;;14.27;4.20;;;26.70;99.90;;;;;;5001030;28;20518;-64
2023/09/06 12:33:27;;;;;;;13.73;4.60;;;26.70;99.90;;;;;;4993168;28;20045;-63
2023/09/06 12:36:00;;;;;;;14.73;4.97;;;26.70;99.90;;;;;;4995370;28;20498;-62
2023/09/06 12:38:31;;;;;;;16.35;4.50;;;26.70;99.90;;;;;;5006706;28;20481;-62
2023/09/06 12:40:59;;;;;;;17.00;4.40;;;26.70;99.90;;;;;;5002027;28;20119;-63
2023/09/06 12:43:26;;;;;;;12.88;4.18;;;26.60;99.90;;;;;;4995300;28;20044;-62
2023/09/06 12:45:54;;;;;;;17.90;3.92;;;26.60;99.90;;;;;;5000742;28;20072;-63